createdAt,value
2016-10-20T00:00:57.130Z,7.3
2016-10-20T00:01:57.346Z,7.45
2016-10-20T00:02:57.141Z,7.4
2016-10-20T00:03:57.239Z,7.34
2016-10-20T00:04:57.596Z,7.51
2016-10-20T00:05:57.295Z,7.41
2016-10-20T00:06:57.392Z,7.39
2016-10-20T00:07:57.213Z,7.41
2016-10-20T00:08:57.129Z,7.47
2016-10-20T00:09:57.269Z,7.34
2016-10-20T00:10:57.309Z,7.4
2016-10-20T00:11:57.177Z,7.4
2016-10-20T00:12:57.410Z,7.45
2016-10-20T00:13:57.211Z,7.39
2016-10-20T00:14:57.309Z,7.52
2016-10-20T00:15:57.177Z,7.47
2016-10-20T00:16:57.383Z,7.45
2016-10-20T00:17:57.216Z,7.44
2016-10-20T00:18:57.307Z,7.51
2016-10-20T00:19:57.225Z,7.49
2016-10-20T00:20:57.587Z,7.48
2016-10-20T00:21:57.332Z,7.41
2016-10-20T00:22:57.333Z,7.49
2016-10-20T00:23:57.341Z,7.47
2016-10-20T00:24:57.444Z,7.44
2016-10-20T00:25:57.340Z,7.37
2016-10-20T00:26:57.297Z,7.44
2016-10-20T00:27:57.460Z,7.44
2016-10-20T00:28:57.313Z,7.39
2016-10-20T00:29:57.220Z,7.4
2016-10-20T00:30:57.350Z,7.39
2016-10-20T00:31:57.334Z,7.47
2016-10-20T00:32:57.180Z,7.41
2016-10-20T00:33:57.224Z,7.39
2016-10-20T00:34:57.368Z,7.41
2016-10-20T00:35:57.479Z,7.44
2016-10-20T00:36:57.498Z,7.48
2016-10-20T00:37:57.343Z,7.49
2016-10-20T00:38:57.369Z,7.44
2016-10-20T00:39:57.253Z,7.37
2016-10-20T00:40:57.340Z,7.39
2016-10-20T00:41:57.388Z,7.39
2016-10-20T00:42:57.207Z,7.41
2016-10-20T00:43:57.253Z,7.47
2016-10-20T00:44:57.398Z,7.48
2016-10-20T00:45:57.403Z,7.52
2016-10-20T00:46:57.381Z,7.4
2016-10-20T00:47:57.506Z,7.48
2016-10-20T00:48:57.398Z,7.61
2016-10-20T00:49:57.383Z,7.67
2016-10-20T00:50:57.263Z,7.7
2016-10-20T00:51:57.431Z,7.58
2016-10-20T00:52:57.446Z,7.61
2016-10-20T00:53:57.403Z,7.68
2016-10-20T00:54:57.286Z,7.59
2016-10-20T00:55:57.414Z,7.58
2016-10-20T00:56:57.432Z,7.59
2016-10-20T00:57:57.251Z,7.58
2016-10-20T00:58:57.390Z,7.58
2016-10-20T00:59:57.425Z,7.44
2016-10-20T01:00:57.462Z,7.54
2016-10-20T01:01:57.537Z,7.58
2016-10-20T01:02:57.299Z,7.52
2016-10-20T01:03:57.490Z,7.58
2016-10-20T01:04:57.453Z,7.47
2016-10-20T01:05:57.475Z,7.45
2016-10-20T01:06:57.441Z,7.44
2016-10-20T01:07:57.340Z,7.41
2016-10-20T01:08:57.681Z,7.31
2016-10-20T01:09:57.366Z,7.41
2016-10-20T01:10:57.379Z,7.47
2016-10-20T01:11:57.474Z,7.26
2016-10-20T01:12:57.429Z,7.41
2016-10-20T01:13:57.341Z,7.45
2016-10-20T01:14:57.589Z,7.37
2016-10-20T01:15:57.581Z,7.22
2016-10-20T01:16:57.506Z,7.45
2016-10-20T01:17:57.477Z,7.29
2016-10-20T01:18:57.369Z,7.48
2016-10-20T01:19:57.481Z,7.47
2016-10-20T01:20:57.506Z,7.3
2016-10-20T01:21:57.492Z,7.44
2016-10-20T01:22:57.368Z,7.4
2016-10-20T01:23:57.469Z,7.33
2016-10-20T01:24:57.665Z,7.36
2016-10-20T01:25:57.459Z,7.29
2016-10-20T01:26:57.343Z,7.34
2016-10-20T01:27:57.606Z,7.36
2016-10-20T01:28:57.519Z,7.39
2016-10-20T01:29:57.638Z,7.4
2016-10-20T01:30:57.360Z,7.4
2016-10-20T01:31:57.404Z,7.27
2016-10-20T01:32:57.541Z,7.23
2016-10-20T01:33:57.427Z,7.39
2016-10-20T01:34:57.428Z,7.39
2016-10-20T01:35:57.663Z,7.26
2016-10-20T01:36:57.502Z,7.4
2016-10-20T01:37:57.372Z,7.3
2016-10-20T01:38:57.506Z,7.4
2016-10-20T01:39:57.488Z,7.26
2016-10-20T01:40:57.624Z,7.41
2016-10-20T01:41:57.738Z,7.36
2016-10-20T01:42:57.651Z,7.39
2016-10-20T01:43:57.529Z,7.22
2016-10-20T01:44:57.528Z,7.33
2016-10-20T01:45:57.665Z,7.29
2016-10-20T01:46:57.668Z,7.23
2016-10-20T01:47:57.542Z,7.31
2016-10-20T01:48:57.675Z,7.3
2016-10-20T01:49:57.614Z,7.29
2016-10-20T01:50:57.564Z,7.27
2016-10-20T01:51:57.481Z,7.29
2016-10-20T01:52:57.586Z,7.27
2016-10-20T01:53:57.688Z,7.3
2016-10-20T01:54:57.588Z,7.22
2016-10-20T01:55:57.558Z,7.31
2016-10-20T01:56:57.706Z,7.26
2016-10-20T01:57:57.585Z,7.27
2016-10-20T01:58:57.707Z,7.27
2016-10-20T01:59:57.582Z,7.27
2016-10-20T02:00:57.589Z,7.19
2016-10-20T02:01:57.580Z,7.27
2016-10-20T02:02:57.575Z,7.18
2016-10-20T02:03:57.623Z,7.3
2016-10-20T02:04:57.572Z,7.29
2016-10-20T02:05:57.731Z,7.26
2016-10-20T02:06:57.636Z,7.18
2016-10-20T02:07:57.753Z,7.11
2016-10-20T02:08:57.596Z,7.22
2016-10-20T02:09:57.733Z,7.26
2016-10-20T02:10:57.588Z,7.26
2016-10-20T02:11:57.590Z,7.21
2016-10-20T02:12:57.632Z,7.21
2016-10-20T02:13:57.735Z,7.18
2016-10-20T02:14:57.772Z,7.18
2016-10-20T02:15:57.750Z,7.13
2016-10-20T02:16:57.758Z,7.19
2016-10-20T02:17:57.754Z,7.13
2016-10-20T02:18:57.528Z,7.18
2016-10-20T02:19:57.488Z,7.22
2016-10-20T02:20:57.695Z,7.19
2016-10-20T02:21:57.523Z,7.09
2016-10-20T02:22:57.632Z,7.19
2016-10-20T02:23:57.650Z,7.19
2016-10-20T02:24:57.677Z,7.13
2016-10-20T02:25:57.667Z,7.09
2016-10-20T02:26:57.575Z,7.16
2016-10-20T02:27:57.658Z,7.19
2016-10-20T02:28:57.769Z,7.12
2016-10-20T02:29:57.654Z,7.11
2016-10-20T02:30:57.593Z,7.13
2016-10-20T02:31:57.694Z,7.16
2016-10-20T02:32:57.522Z,7.15
2016-10-20T02:33:57.679Z,7.21
2016-10-20T02:34:57.802Z,7.16
2016-10-20T02:35:57.570Z,7.22
2016-10-20T02:36:57.725Z,7.16
2016-10-20T02:37:57.683Z,7.19
2016-10-20T02:38:57.676Z,7.29
2016-10-20T02:39:57.857Z,7.21
2016-10-20T02:40:57.831Z,7.21
2016-10-20T02:41:57.818Z,7.19
2016-10-20T02:42:57.824Z,7.21
2016-10-20T02:43:57.744Z,7.18
2016-10-20T02:44:57.955Z,7.15
2016-10-20T02:45:57.560Z,7.16
2016-10-20T02:46:57.699Z,7.12
2016-10-20T02:47:57.716Z,7.26
2016-10-20T02:48:57.706Z,7.16
2016-10-20T02:49:57.626Z,7.23
2016-10-20T02:50:57.761Z,7.22
2016-10-20T02:51:57.660Z,7.15
2016-10-20T02:52:57.709Z,7.16
2016-10-20T02:53:57.607Z,7.13
2016-10-20T02:54:57.729Z,7.15
2016-10-20T02:55:57.885Z,7.09
2016-10-20T02:56:57.773Z,7.11
2016-10-20T02:57:57.734Z,7.09
2016-10-20T02:58:57.674Z,7.15
2016-10-20T02:59:57.773Z,7.18
2016-10-20T03:00:57.999Z,7.19
2016-10-20T03:01:57.673Z,7.09
2016-10-20T03:02:57.640Z,7.22
2016-10-20T03:03:57.657Z,7.08
2016-10-20T03:04:57.656Z,7.08
2016-10-20T03:05:57.660Z,7.04
2016-10-20T03:06:57.763Z,7.08
2016-10-20T03:07:57.693Z,7.03
2016-10-20T03:08:57.707Z,7.08
2016-10-20T03:09:57.818Z,7.09
2016-10-20T03:10:57.659Z,7.04
2016-10-20T03:11:57.717Z,6.94
2016-10-20T03:12:57.745Z,7
2016-10-20T03:13:57.728Z,6.91
2016-10-20T03:14:57.719Z,6.95
2016-10-20T03:15:57.681Z,7
2016-10-20T03:16:57.909Z,6.93
2016-10-20T03:17:57.682Z,7.03
2016-10-20T03:18:57.838Z,7.03
2016-10-20T03:19:57.837Z,7
2016-10-20T03:20:57.948Z,7.01
2016-10-20T03:21:57.817Z,6.98
2016-10-20T03:22:57.772Z,6.95
2016-10-20T03:23:57.687Z,6.97
2016-10-20T03:24:57.746Z,6.95
2016-10-20T03:25:57.768Z,6.88
2016-10-20T03:26:57.827Z,6.91
2016-10-20T03:27:57.773Z,6.9
2016-10-20T03:28:57.826Z,6.9
2016-10-20T03:29:57.748Z,6.88
2016-10-20T03:30:57.795Z,6.8
2016-10-20T03:31:57.809Z,6.88
2016-10-20T03:32:57.806Z,6.86
2016-10-20T03:33:57.819Z,6.88
2016-10-20T03:34:57.850Z,6.86
2016-10-20T03:35:57.773Z,6.93
2016-10-20T03:36:58.056Z,6.93
2016-10-20T03:37:57.734Z,6.88
2016-10-20T03:38:57.776Z,6.83
2016-10-20T03:39:57.780Z,6.85
2016-10-20T03:40:57.793Z,6.93
2016-10-20T03:41:57.870Z,6.88
2016-10-20T03:42:57.878Z,6.9
2016-10-20T03:43:57.888Z,6.88
2016-10-20T03:44:57.762Z,6.94
2016-10-20T03:45:57.763Z,6.97
2016-10-20T03:46:57.724Z,6.93
2016-10-20T03:47:57.881Z,6.95
2016-10-20T03:48:57.960Z,6.88
2016-10-20T03:49:57.781Z,6.97
2016-10-20T03:50:57.776Z,6.93
2016-10-20T03:51:57.850Z,6.93
2016-10-20T03:52:57.887Z,6.95
2016-10-20T03:53:57.900Z,6.91
2016-10-20T03:54:57.897Z,6.93
2016-10-20T03:55:57.755Z,6.9
2016-10-20T03:56:57.829Z,6.94
2016-10-20T03:57:57.903Z,6.98
2016-10-20T03:58:57.802Z,6.95
2016-10-20T03:59:57.860Z,6.94
2016-10-20T04:00:57.786Z,6.88
2016-10-20T04:01:57.881Z,6.94
2016-10-20T04:02:57.896Z,6.86
2016-10-20T04:03:57.888Z,6.88
2016-10-20T04:04:57.942Z,6.98
2016-10-20T04:05:57.905Z,6.95
2016-10-20T04:06:57.872Z,6.86
2016-10-20T04:07:57.944Z,6.94
2016-10-20T04:08:57.919Z,6.97
2016-10-20T04:09:57.871Z,6.86
2016-10-20T04:10:57.882Z,6.86
2016-10-20T04:11:57.841Z,6.9
2016-10-20T04:12:57.939Z,6.93
2016-10-20T04:13:57.831Z,6.94
2016-10-20T04:14:57.909Z,6.95
2016-10-20T04:15:57.948Z,6.88
2016-10-20T04:16:57.844Z,6.88
2016-10-20T04:17:57.875Z,6.9
2016-10-20T04:18:57.884Z,6.9
2016-10-20T04:19:57.900Z,6.86
2016-10-20T04:20:58.237Z,6.97
2016-10-20T04:21:57.928Z,6.95
2016-10-20T04:22:57.907Z,6.91
2016-10-20T04:23:57.947Z,6.9
2016-10-20T04:24:57.992Z,6.86
2016-10-20T04:25:57.963Z,6.86
2016-10-20T04:26:57.955Z,6.86
2016-10-20T04:27:57.915Z,6.85
2016-10-20T04:28:57.884Z,6.75
2016-10-20T04:29:57.845Z,6.83
2016-10-20T04:30:58.204Z,6.85
2016-10-20T04:31:57.870Z,6.72
2016-10-20T04:32:57.896Z,6.83
2016-10-20T04:33:57.956Z,6.83
2016-10-20T04:34:57.977Z,6.86
2016-10-20T04:35:58.009Z,6.85
2016-10-20T04:36:58.103Z,6.83
2016-10-20T04:37:57.981Z,6.83
2016-10-20T04:38:57.991Z,6.83
2016-10-20T04:39:57.951Z,6.85
2016-10-20T04:40:58.017Z,6.8
2016-10-20T04:41:58.073Z,6.83
2016-10-20T04:42:58.049Z,6.85
2016-10-20T04:43:58.007Z,6.85
2016-10-20T04:44:58.025Z,6.83
2016-10-20T04:45:57.966Z,6.85
2016-10-20T04:46:58.053Z,6.82
2016-10-20T04:47:57.969Z,6.88
2016-10-20T04:48:57.938Z,6.93
2016-10-20T04:49:57.976Z,6.8
2016-10-20T04:50:58.061Z,6.91
2016-10-20T04:51:58.020Z,6.9
2016-10-20T04:52:58.122Z,6.91
2016-10-20T04:53:57.954Z,6.83
2016-10-20T04:54:58.079Z,6.9
2016-10-20T04:55:58.076Z,6.94
2016-10-20T04:56:58.110Z,6.79
2016-10-20T04:57:57.960Z,6.94
2016-10-20T04:58:58.054Z,6.86
2016-10-20T04:59:58.048Z,6.83
2016-10-20T05:00:58.029Z,6.82
2016-10-20T05:01:58.200Z,6.85
2016-10-20T05:02:58.102Z,6.8
2016-10-20T05:03:58.113Z,6.7
2016-10-20T05:04:58.021Z,6.75
2016-10-20T05:05:58.057Z,6.7
2016-10-20T05:06:57.959Z,6.76
2016-10-20T05:07:58.024Z,6.7
2016-10-20T05:08:58.176Z,6.68
2016-10-20T05:09:57.998Z,6.61
2016-10-20T05:10:58.104Z,6.68
2016-10-20T05:11:58.018Z,6.62
2016-10-20T05:12:57.991Z,6.75
2016-10-20T05:13:58.015Z,6.7
2016-10-20T05:14:58.098Z,6.72
2016-10-20T05:15:58.115Z,6.64
2016-10-20T05:16:57.984Z,6.61
2016-10-20T05:17:58.041Z,6.61
2016-10-20T05:18:58.064Z,6.67
2016-10-20T05:19:58.084Z,6.6
2016-10-20T05:20:58.076Z,6.64
2016-10-20T05:21:58.056Z,6.61
2016-10-20T05:22:58.102Z,6.61
2016-10-20T05:23:58.156Z,6.64
2016-10-20T05:24:58.124Z,6.61
2016-10-20T05:25:58.081Z,6.58
2016-10-20T05:26:58.146Z,6.57
2016-10-20T05:27:58.058Z,6.64
2016-10-20T05:28:58.093Z,6.6
2016-10-20T05:29:58.003Z,6.62
2016-10-20T05:30:58.193Z,6.51
2016-10-20T05:31:58.125Z,6.55
2016-10-20T05:32:58.106Z,6.52
2016-10-20T05:33:58.021Z,6.52
2016-10-20T05:34:58.105Z,6.51
2016-10-20T05:35:58.135Z,6.49
2016-10-20T05:36:58.109Z,6.51
2016-10-20T05:37:58.191Z,6.57
2016-10-20T05:38:58.102Z,6.47
2016-10-20T05:39:58.041Z,6.47
2016-10-20T05:40:58.268Z,6.54
2016-10-20T05:41:58.044Z,6.47
2016-10-20T05:42:58.207Z,6.51
2016-10-20T05:43:58.196Z,6.52
2016-10-20T05:44:58.146Z,6.47
2016-10-20T05:45:58.220Z,6.54
2016-10-20T05:46:58.219Z,6.55
2016-10-20T05:47:58.150Z,6.55
2016-10-20T05:48:58.212Z,6.52
2016-10-20T05:49:58.183Z,6.57
2016-10-20T05:50:58.169Z,6.55
2016-10-20T05:51:58.336Z,6.46
2016-10-20T05:52:58.202Z,6.58
2016-10-20T05:53:58.079Z,6.6
2016-10-20T05:54:58.207Z,6.47
2016-10-20T05:55:58.195Z,6.54
2016-10-20T05:56:58.353Z,6.52
2016-10-20T05:57:58.211Z,6.51
2016-10-20T05:58:58.172Z,6.52
2016-10-20T06:00:58.160Z,6.47
2016-10-20T06:01:58.231Z,6.47
2016-10-20T06:02:58.201Z,6.49
2016-10-20T06:03:58.254Z,6.44
2016-10-20T06:04:58.243Z,6.44
2016-10-20T06:05:58.259Z,6.47
2016-10-20T06:06:58.202Z,6.4
2016-10-20T06:07:58.298Z,6.37
2016-10-20T06:08:58.335Z,6.46
2016-10-20T06:09:58.248Z,6.52
2016-10-20T06:10:58.894Z,6.52
2016-10-20T06:11:58.304Z,6.43
2016-10-20T06:12:58.579Z,6.44
2016-10-20T06:13:58.305Z,6.49
2016-10-20T06:14:58.292Z,6.52
2016-10-20T06:15:58.282Z,6.51
2016-10-20T06:16:58.295Z,6.47
2016-10-20T06:17:58.343Z,6.49
2016-10-20T06:18:58.232Z,6.42
2016-10-20T06:19:58.290Z,6.51
2016-10-20T06:20:58.363Z,6.44
2016-10-20T06:21:58.303Z,6.4
2016-10-20T06:22:58.290Z,6.49
2016-10-20T06:23:58.498Z,6.4
2016-10-20T06:24:58.328Z,6.58
2016-10-20T06:25:58.275Z,6.52
2016-10-20T06:27:02.192Z,6.4
2016-10-20T06:28:01.725Z,6.54
2016-10-20T06:28:58.717Z,6.54
2016-10-20T06:29:58.372Z,6.57
2016-10-20T06:30:58.285Z,6.54
2016-10-20T06:31:58.306Z,6.51
2016-10-20T06:32:58.263Z,6.6
2016-10-20T06:34:05.718Z,6.52
2016-10-20T06:34:58.298Z,6.57
2016-10-20T06:35:58.360Z,6.52
2016-10-20T06:36:58.279Z,6.54
2016-10-20T06:37:58.200Z,6.62
2016-10-20T06:38:58.345Z,6.67
2016-10-20T06:39:58.352Z,6.64
2016-10-20T06:40:58.373Z,6.64
2016-10-20T06:41:58.369Z,6.6
2016-10-20T06:42:58.221Z,6.65
2016-10-20T06:43:58.292Z,6.65
2016-10-20T06:44:58.420Z,6.75
2016-10-20T06:45:58.321Z,6.72
2016-10-20T06:46:58.277Z,6.68
2016-10-20T06:47:58.397Z,6.76
2016-10-20T06:48:58.460Z,6.72
2016-10-20T06:49:58.277Z,6.78
2016-10-20T06:50:58.253Z,6.75
2016-10-20T06:51:58.423Z,6.86
2016-10-20T06:52:58.409Z,6.73
2016-10-20T06:53:58.405Z,6.88
2016-10-20T06:54:58.343Z,6.97
2016-10-20T06:55:58.374Z,6.9
2016-10-20T06:56:58.381Z,6.88
2016-10-20T06:57:58.426Z,6.88
2016-10-20T06:58:58.407Z,6.86
2016-10-20T06:59:58.384Z,6.88
2016-10-20T07:00:58.518Z,6.86
2016-10-20T07:01:58.420Z,6.94
2016-10-20T07:02:58.399Z,6.94
2016-10-20T07:03:58.428Z,7.01
2016-10-20T07:04:58.306Z,7.03
2016-10-20T07:05:58.395Z,7.16
2016-10-20T07:06:58.287Z,7.13
2016-10-20T07:07:58.432Z,7.19
2016-10-20T07:08:58.417Z,7.19
2016-10-20T07:09:58.439Z,7.18
2016-10-20T07:10:58.320Z,7.19
2016-10-20T07:11:58.476Z,7.19
2016-10-20T07:12:58.403Z,7.3
2016-10-20T07:13:58.542Z,7.29
2016-10-20T07:14:58.306Z,7.23
2016-10-20T07:15:58.413Z,7.37
2016-10-20T07:16:58.605Z,7.29
2016-10-20T07:17:58.470Z,7.26
2016-10-20T07:18:58.610Z,7.3
2016-10-20T07:19:58.404Z,7.41
2016-10-20T07:20:58.464Z,7.33
2016-10-20T07:21:59.335Z,7.33
2016-10-20T07:22:58.414Z,7.39
2016-10-20T07:23:58.508Z,7.36
2016-10-20T07:24:58.546Z,7.33
2016-10-20T07:25:58.527Z,7.26
2016-10-20T07:26:58.507Z,7.36
2016-10-20T07:27:58.443Z,7.39
2016-10-20T07:28:58.455Z,7.36
2016-10-20T07:29:58.439Z,7.49
2016-10-20T07:30:58.451Z,7.55
2016-10-20T07:31:58.473Z,7.4
2016-10-20T07:32:58.838Z,7.45
2016-10-20T07:33:58.691Z,7.39
2016-10-20T07:34:58.609Z,7.54
2016-10-20T07:35:58.952Z,7.41
2016-10-20T07:36:58.452Z,7.55
2016-10-20T07:37:58.413Z,7.47
2016-10-20T07:38:58.617Z,7.51
2016-10-20T07:39:58.501Z,7.45
2016-10-20T07:40:58.603Z,7.54
2016-10-20T07:41:59.127Z,7.56
2016-10-20T07:42:58.587Z,7.67
2016-10-20T07:43:58.483Z,7.61
2016-10-20T07:44:59.113Z,7.58
2016-10-20T07:46:00.920Z,7.63
2016-10-20T07:46:58.680Z,7.68
2016-10-20T07:47:58.617Z,7.73
2016-10-20T07:48:58.713Z,7.75
2016-10-20T07:49:59.605Z,7.82
2016-10-20T07:50:58.536Z,7.78
2016-10-20T07:51:58.495Z,7.78
2016-10-20T07:52:58.416Z,7.83
2016-10-20T07:53:58.605Z,7.83
2016-10-20T07:54:58.520Z,7.83
2016-10-20T07:55:58.562Z,7.82
2016-10-20T07:56:58.592Z,7.89
2016-10-20T07:57:58.588Z,7.85
2016-10-20T07:58:58.605Z,7.86
2016-10-20T07:59:58.722Z,7.93
2016-10-20T08:00:58.670Z,8.09
2016-10-20T08:01:58.609Z,8.04
2016-10-20T08:02:58.596Z,8.21
2016-10-20T08:03:58.587Z,8.22
2016-10-20T08:04:58.862Z,8.21
2016-10-20T08:05:58.610Z,8.24
2016-10-20T08:06:58.552Z,8.31
2016-10-20T08:07:58.487Z,8.39
2016-10-20T08:08:58.594Z,8.36
2016-10-20T08:09:59.277Z,8.47
2016-10-20T08:10:58.690Z,8.43
2016-10-20T08:11:58.602Z,8.64
2016-10-20T08:12:58.764Z,8.72
2016-10-20T08:13:58.678Z,8.89
2016-10-20T08:14:58.565Z,8.98
2016-10-20T08:15:58.632Z,8.9
2016-10-20T08:16:58.628Z,8.89
2016-10-20T08:17:58.556Z,9.16
2016-10-20T08:18:58.583Z,9.14
2016-10-20T08:19:59.652Z,9.26
2016-10-20T08:21:00.107Z,9.47
2016-10-20T08:21:59.108Z,9.55
2016-10-20T08:22:58.536Z,9.5
2016-10-20T08:23:58.690Z,9.55
2016-10-20T08:24:58.549Z,9.55
2016-10-20T08:25:58.618Z,9.48
2016-10-20T08:26:58.554Z,9.37
2016-10-20T08:27:58.721Z,9.44
2016-10-20T08:28:58.716Z,9.48
2016-10-20T08:29:58.991Z,9.62
2016-10-20T08:30:58.577Z,9.57
2016-10-20T08:31:58.680Z,9.45
2016-10-20T08:32:58.713Z,9.29
2016-10-20T08:33:58.665Z,9.35
2016-10-20T08:34:58.621Z,9.3
2016-10-20T08:35:58.640Z,9.39
2016-10-20T08:36:58.843Z,9.29
2016-10-20T08:37:58.552Z,9.14
2016-10-20T08:38:58.631Z,9.19
2016-10-20T08:39:58.828Z,9.09
2016-10-20T08:40:58.613Z,9.12
2016-10-20T08:41:58.744Z,9.05
2016-10-20T08:42:58.645Z,9.24
2016-10-20T08:43:58.626Z,9.26
2016-10-20T08:44:58.700Z,9.2
2016-10-20T08:45:58.676Z,9.32
2016-10-20T08:46:58.643Z,9.24
2016-10-20T08:47:58.648Z,9.3
2016-10-20T08:48:58.637Z,9.29
2016-10-20T08:49:58.697Z,9.38
2016-10-20T08:50:58.661Z,9.59
2016-10-20T08:51:58.687Z,9.6
2016-10-20T08:52:58.844Z,9.64
2016-10-20T08:53:58.600Z,9.5
2016-10-20T08:54:58.756Z,9.5
2016-10-20T08:55:58.695Z,9.53
2016-10-20T08:56:58.663Z,9.63
2016-10-20T08:57:58.685Z,9.63
2016-10-20T08:58:58.744Z,9.66
2016-10-20T08:59:58.780Z,9.6
2016-10-20T09:00:58.712Z,9.52
2016-10-20T09:01:59.383Z,9.39
2016-10-20T09:02:58.765Z,9.38
2016-10-20T09:03:58.777Z,9.38
2016-10-20T09:04:58.726Z,9.52
2016-10-20T09:05:58.764Z,9.52
2016-10-20T09:06:58.754Z,9.47
2016-10-20T09:07:58.772Z,9.6
2016-10-20T09:08:58.943Z,9.55
2016-10-20T09:09:58.709Z,9.45
2016-10-20T09:10:58.808Z,9.2
2016-10-20T09:11:58.857Z,9.42
2016-10-20T09:12:58.851Z,9.62
2016-10-20T09:13:58.838Z,9.57
2016-10-20T09:14:58.939Z,9.66
2016-10-20T09:15:58.717Z,9.67
2016-10-20T09:16:58.736Z,9.63
2016-10-20T09:17:58.826Z,9.6
2016-10-20T09:18:58.860Z,9.48
2016-10-20T09:19:58.847Z,9.47
2016-10-20T09:20:58.833Z,9.39
2016-10-20T09:21:58.761Z,9.27
2016-10-20T09:22:58.804Z,9.24
2016-10-20T09:23:58.866Z,9.3
2016-10-20T09:24:59.053Z,9.38
2016-10-20T09:25:58.803Z,9.55
2016-10-20T09:26:58.831Z,9.64
2016-10-20T09:27:58.797Z,9.66
2016-10-20T09:28:59.514Z,9.59
2016-10-20T09:29:58.808Z,9.56
2016-10-20T09:30:58.781Z,9.66
2016-10-20T09:31:58.809Z,9.63
2016-10-20T09:32:58.805Z,9.77
2016-10-20T09:33:59.104Z,9.66
2016-10-20T09:34:59.234Z,9.67
2016-10-20T09:35:59.515Z,9.81
2016-10-20T09:36:58.699Z,9.78
2016-10-20T09:37:59.076Z,9.81
2016-10-20T09:38:58.825Z,9.7
2016-10-20T09:39:58.862Z,9.78
2016-10-20T09:40:58.924Z,9.78
2016-10-20T09:41:58.792Z,9.8
2016-10-20T09:42:58.940Z,9.66
2016-10-20T09:43:58.812Z,9.75
2016-10-20T09:44:58.821Z,9.8
2016-10-20T09:45:59.003Z,9.78
2016-10-20T09:46:58.972Z,9.8
2016-10-20T09:48:00.342Z,9.81
2016-10-20T09:49:01.408Z,9.89
2016-10-20T09:49:59.107Z,9.99
2016-10-20T09:51:00.667Z,10.1
2016-10-20T09:51:59.790Z,10.26
2016-10-20T09:52:58.956Z,10.25
2016-10-20T09:53:58.755Z,10.21
2016-10-20T09:54:58.887Z,10.18
2016-10-20T09:55:58.908Z,10.2
2016-10-20T09:56:58.819Z,10.36
2016-10-20T09:57:58.877Z,10.51
2016-10-20T09:58:59.050Z,10.52
2016-10-20T09:59:58.942Z,10.35
2016-10-20T10:00:58.917Z,10.36
2016-10-20T10:01:58.913Z,10.49
2016-10-20T10:02:58.805Z,10.32
2016-10-20T10:04:03.044Z,10.52
2016-10-20T10:04:59.483Z,10.72
2016-10-20T10:05:58.977Z,11.05
2016-10-20T10:06:58.821Z,11.49
2016-10-20T10:07:59.596Z,11.73
2016-10-20T10:08:58.917Z,12.16
2016-10-20T10:09:59.066Z,12.01
2016-10-20T10:10:58.949Z,11.97
2016-10-20T10:11:59.056Z,11.95
2016-10-20T10:12:59.071Z,12.05
2016-10-20T10:13:58.897Z,12.25
2016-10-20T10:14:58.975Z,12.04
2016-10-20T10:15:58.912Z,11.86
2016-10-20T10:16:59.500Z,11.81
2016-10-20T10:17:59.009Z,11.67
2016-10-20T10:18:59.069Z,11.73
2016-10-20T10:19:58.952Z,11.76
2016-10-20T10:20:59.035Z,11.73
2016-10-20T10:21:58.988Z,11.48
2016-10-20T10:22:58.942Z,11.68
2016-10-20T10:23:58.888Z,11.76
2016-10-20T10:24:58.998Z,11.51
2016-10-20T10:25:59.073Z,11.64
2016-10-20T10:27:09.872Z,11.43
2016-10-20T10:28:07.592Z,11.64
2016-10-20T10:29:12.373Z,11.6
2016-10-20T10:30:06.843Z,11.56
2016-10-20T10:31:09.827Z,11.61
2016-10-20T10:31:59.011Z,11.82
2016-10-20T10:32:59.052Z,12.19
2016-10-20T10:33:59.020Z,12.4
2016-10-20T10:34:59.427Z,12.59
2016-10-20T10:35:58.981Z,12.99
2016-10-20T10:36:59.032Z,13.2
2016-10-20T10:37:58.991Z,13.19
2016-10-20T10:38:59.042Z,13.31
2016-10-20T10:39:59.147Z,13.32
2016-10-20T10:40:59.088Z,13.27
2016-10-20T10:41:59.060Z,13.32
2016-10-20T10:42:59.134Z,13.32
2016-10-20T10:43:59.111Z,13.35
2016-10-20T10:44:59.044Z,13.5
2016-10-20T10:45:59.091Z,13.36
2016-10-20T10:46:59.049Z,12.88
2016-10-20T10:47:59.014Z,12.4
2016-10-20T10:48:58.987Z,12.63
2016-10-20T10:49:59.134Z,13.36
2016-10-20T10:50:59.093Z,13.81
2016-10-20T10:51:59.135Z,14.28
2016-10-20T10:52:59.388Z,14.42
2016-10-20T10:53:59.176Z,14.57
2016-10-20T10:54:58.992Z,14.82
2016-10-20T10:55:58.949Z,14.42
2016-10-20T10:56:59.069Z,14.36
2016-10-20T10:57:58.992Z,13.83
2016-10-20T10:58:59.102Z,13.58
2016-10-20T10:59:58.998Z,13.36
2016-10-20T11:00:59.105Z,13.21
2016-10-20T11:01:59.176Z,13.28
2016-10-20T11:02:59.074Z,13.14
2016-10-20T11:03:59.073Z,13.14
2016-10-20T11:04:59.138Z,13.28
2016-10-20T11:05:59.119Z,13.36
2016-10-20T11:06:59.187Z,13.53
2016-10-20T11:07:59.040Z,13.72
2016-10-20T11:08:59.187Z,13.58
2016-10-20T11:09:59.120Z,13.32
2016-10-20T11:10:59.207Z,13.02
2016-10-20T11:11:59.185Z,12.99
2016-10-20T11:12:59.156Z,13.1
2016-10-20T11:14:00.549Z,13.48
2016-10-20T11:14:59.196Z,13.35
2016-10-20T11:15:59.104Z,13.39
2016-10-20T11:16:59.097Z,13.76
2016-10-20T11:17:59.119Z,13.99
2016-10-20T11:18:59.171Z,14.31
2016-10-20T11:19:59.334Z,14.49
2016-10-20T11:20:59.154Z,14.86
2016-10-20T11:21:59.242Z,15.05
2016-10-20T11:22:59.118Z,15.34
2016-10-20T11:23:59.179Z,15.71
2016-10-20T11:24:59.129Z,15.4
2016-10-20T11:25:59.094Z,15.04
2016-10-20T11:27:00.055Z,14.87
2016-10-20T11:27:59.118Z,15.1
2016-10-20T11:28:59.170Z,15.23
2016-10-20T11:29:59.228Z,15.78
2016-10-20T11:30:59.260Z,16.04
2016-10-20T11:31:59.201Z,16.11
2016-10-20T11:32:59.156Z,16.17
2016-10-20T11:33:59.237Z,16.13
2016-10-20T11:34:59.146Z,15.98
2016-10-20T11:35:59.263Z,15.83
2016-10-20T11:36:59.165Z,15.91
2016-10-20T11:37:59.132Z,16
2016-10-20T11:38:59.216Z,15.65
2016-10-20T11:39:59.180Z,15.7
2016-10-20T11:40:59.397Z,15.84
2016-10-20T11:41:59.235Z,16.08
2016-10-20T11:42:59.242Z,16.07
2016-10-20T11:43:59.186Z,16.21
2016-10-20T11:44:59.218Z,16.29
2016-10-20T11:45:59.398Z,16.21
2016-10-20T11:46:59.162Z,16.17
2016-10-20T11:47:59.225Z,16.33
2016-10-20T11:48:59.275Z,16.73
2016-10-20T11:49:59.213Z,16.22
2016-10-20T11:51:00.706Z,16.18
2016-10-20T11:52:11.960Z,16.13
2016-10-20T11:53:11.743Z,15.88
2016-10-20T11:54:07.205Z,15.71
2016-10-20T11:55:06.336Z,15.37
2016-10-20T11:56:08.294Z,14.97
2016-10-20T11:57:06.994Z,14.56
2016-10-20T11:57:59.338Z,14.42
2016-10-20T11:58:59.590Z,14.41
2016-10-20T11:59:59.332Z,14.2
2016-10-20T12:00:59.441Z,13.88
2016-10-20T12:01:59.345Z,13.68
2016-10-20T12:02:59.289Z,13.6
2016-10-20T12:03:59.379Z,13.6
2016-10-20T12:04:59.292Z,13.36
2016-10-20T12:05:59.472Z,12.96
2016-10-20T12:06:59.443Z,12.98
2016-10-20T12:07:59.347Z,13.01
2016-10-20T12:08:59.292Z,12.96
2016-10-20T12:09:59.350Z,13.1
2016-10-20T12:10:59.214Z,13.14
2016-10-20T12:11:59.386Z,13.1
2016-10-20T12:12:59.374Z,13.2
2016-10-20T12:13:59.281Z,13.27
2016-10-20T12:14:59.366Z,13.16
2016-10-20T12:15:59.686Z,13.28
2016-10-20T12:16:59.478Z,13.25
2016-10-20T12:17:59.517Z,13.21
2016-10-20T12:19:00.175Z,13.14
2016-10-20T12:19:59.538Z,12.98
2016-10-20T12:20:59.915Z,13.02
2016-10-20T12:21:59.256Z,13.02
2016-10-20T12:23:14.547Z,13.06
2016-10-20T12:23:59.598Z,13.1
2016-10-20T12:25:02.273Z,12.99
2016-10-20T12:26:11.833Z,13.11
2016-10-20T12:26:59.547Z,13.01
2016-10-20T12:27:59.471Z,12.76
2016-10-20T12:29:01.073Z,12.78
2016-10-20T12:30:05.342Z,12.66
2016-10-20T12:31:05.624Z,12.43
2016-10-20T12:32:00.565Z,12.19
2016-10-20T12:32:59.874Z,12.15
2016-10-20T12:33:59.939Z,12.22
2016-10-20T12:35:00.628Z,12.03
2016-10-20T12:36:01.102Z,11.7
2016-10-20T12:37:00.294Z,11.61
2016-10-20T12:37:59.886Z,11.68
2016-10-20T12:38:59.459Z,11.75
2016-10-20T12:40:00.664Z,11.79
2016-10-20T12:41:01.249Z,11.91
2016-10-20T12:41:59.711Z,11.91
2016-10-20T12:43:00.181Z,11.95
2016-10-20T12:44:00.209Z,12.08
2016-10-20T12:45:00.375Z,11.84
2016-10-20T12:45:59.780Z,11.81
2016-10-20T12:47:00.203Z,11.68
2016-10-20T12:48:28.596Z,11.64
2016-10-20T12:49:39.955Z,11.76
2016-10-20T12:50:25.154Z,11.79
2016-10-20T12:51:15.398Z,11.89
2016-10-20T12:52:13.076Z,11.97
2016-10-20T12:53:12.128Z,12
2016-10-20T12:54:12.088Z,12.04
2016-10-20T12:55:12.173Z,12.05
2016-10-20T12:56:14.923Z,12.05
2016-10-20T12:57:13.501Z,12.16
2016-10-20T12:58:11.836Z,12.15
2016-10-20T12:59:12.121Z,12.18
2016-10-20T13:00:13.980Z,12.2
2016-10-20T13:01:13.180Z,12.22
2016-10-20T13:03:52.207Z,12.36
2016-10-20T13:04:12.271Z,12.36
2016-10-20T13:05:11.983Z,12.38
2016-10-20T13:06:13.062Z,12.33
2016-10-20T13:07:12.078Z,12.26
2016-10-20T13:08:12.241Z,12.2
2016-10-20T13:09:12.210Z,12.16
2016-10-20T13:10:12.336Z,12.16
2016-10-20T13:11:12.273Z,12.08
2016-10-20T13:12:12.699Z,11.95
2016-10-20T13:13:12.014Z,12.07
2016-10-20T13:14:12.277Z,11.95
2016-10-20T13:15:11.878Z,11.86
2016-10-20T13:16:11.911Z,12.03
2016-10-20T13:17:12.025Z,11.97